Time;durP1;ratioP1;P1;durP2;ratioP2;P2;SDS_P1;SDS_P2;PMS_P1;PMS_P2;Temp;Humidity;BMP_temperature;BMP_pressure;BME280_temperature;BME280_humidity;BME280_pressure;Samples;Min_cycle;Max_cycle;Signal;HPM_P1;HPM_P2
2023/09/19 00:02:21;;;;;;;13.25;5.07;;;;;;;18.81;57.26;95598.38;5029516;28;20037;-81
2023/09/19 00:04:48;;;;;;;10.07;5.38;;;;;;;18.82;57.60;95632.22;5021975;28;20114;-82
2023/09/19 00:07:14;;;;;;;9.00;4.22;;;;;;;18.93;57.55;95638.06;5016468;28;20032;-78
2023/09/19 00:09:39;;;;;;;13.52;4.22;;;;;;;18.97;57.74;95642.50;5011787;28;20533;-79
2023/09/19 00:12:06;;;;;;;8.40;4.63;;;;;;;18.87;57.50;95610.56;5013515;28;20025;-79
2023/09/19 00:14:34;;;;;;;9.05;4.25;;;;;;;19.03;57.12;95621.63;5010859;28;20041;-79
2023/09/19 00:17:00;;;;;;;7.93;4.07;;;;;;;19.03;57.26;95621.63;5008199;28;20068;-79
2023/09/19 00:19:26;;;;;;;7.38;4.90;;;;;;;18.78;57.33;95572.13;5030603;28;20041;-79
2023/09/19 00:21:52;;;;;;;7.15;4.55;;;;;;;18.61;57.76;95556.81;5028011;28;20406;-79
2023/09/19 00:24:18;;;;;;;7.07;4.45;;;;;;;18.90;57.74;95591.13;5006827;28;20048;-80
2023/09/19 00:26:47;;;;;;;9.10;4.13;;;;;;;19.01;57.30;95615.75;5014396;28;20037;-78
2023/09/19 00:29:16;;;;;;;12.07;4.75;;;;;;;19.14;57.55;95618.31;5009832;28;20587;-79
2023/09/19 00:31:43;;;;;;;8.70;4.13;;;;;;;18.88;57.12;95569.13;5029222;28;20095;-79
2023/09/19 00:34:10;;;;;;;9.73;5.00;;;;;;;18.89;57.11;95576.09;5000076;28;20068;-79
2023/09/19 00:36:38;;;;;;;7.75;4.40;;;;;;;19.08;57.28;95613.41;5014941;28;20552;-78
2023/09/19 00:39:05;;;;;;;7.93;4.32;;;;;;;19.16;57.34;95615.28;5012196;28;20299;-79
2023/09/19 00:41:32;;;;;;;10.43;5.10;;;;;;;19.07;57.89;95615.28;5028105;28;20473;-79
2023/09/19 00:43:57;;;;;;;11.13;5.28;;;;;;;19.02;57.70;95599.34;5007795;28;20060;-79
2023/09/19 00:46:23;;;;;;;8.57;4.78;;;;;;;19.13;57.71;95605.97;5007266;28;20037;-79
2023/09/19 00:48:49;;;;;;;9.00;5.05;;;;;;;18.71;57.63;95544.94;5014505;28;20029;-79
2023/09/19 00:51:19;;;;;;;12.35;4.40;;;;;;;18.42;58.09;95511.41;5002085;28;20045;-79
2023/09/19 00:53:46;;;;;;;8.27;4.40;;;;;;;18.89;58.07;95601.06;5006119;28;20045;-79
2023/09/19 00:56:12;;;;;;;10.88;4.75;;;;;;;18.88;57.89;95583.38;5009325;28;20101;-78
2023/09/19 00:58:38;;;;;;;9.60;4.10;;;;;;;18.97;58.17;95612.94;5032848;28;20117;-79
2023/09/19 01:01:06;;;;;;;12.02;4.78;;;;;;;18.76;57.96;95585.09;5014415;28;20492;-79
2023/09/19 01:03:33;;;;;;;7.38;4.53;;;;;;;18.65;58.82;95578.44;5013472;28;20527;-79
2023/09/19 01:06:00;;;;;;;8.75;4.57;;;;;;;18.84;58.68;95609.28;5009214;28;20033;-79
2023/09/19 01:08:29;;;;;;;9.13;4.57;;;;;;;18.73;58.71;95604.53;5006645;28;20046;-79
2023/09/19 01:11:11;;;;;;;9.55;4.88;;;;;;;18.77;58.84;95619.69;5030838;28;20030;-78
2023/09/19 01:14:10;;;;;;;9.57;4.75;;;;;;;18.86;58.66;95612.44;5032266;28;20061;-78
2023/09/19 01:16:50;;;;;;;7.15;4.68;;;;;;;18.80;58.43;95596.78;5014801;28;20052;-82
2023/09/19 01:19:44;;;;;;;8.63;5.05;;;;;;;18.97;58.28;95607.56;5014843;28;20135;-82
2023/09/19 01:22:45;;;;;;;13.57;5.35;;;;;;;18.82;58.47;95595.38;5029630;28;20095;-81
2023/09/19 01:26:15;;;;;;;9.48;5.32;;;;;;;18.84;58.79;95608.50;5014186;28;20036;-81
2023/09/19 01:28:57;;;;;;;11.85;5.22;;;;;;;18.88;58.64;95622.88;4961180;28;20042;-81
2023/09/19 01:31:24;;;;;;;9.82;5.28;;;;;;;18.64;58.42;95587.59;5014539;28;20033;-81
2023/09/19 01:33:57;;;;;;;10.60;5.35;;;;;;;18.76;58.37;95595.84;5014631;28;20045;-81
2023/09/19 01:36:23;;;;;;;10.23;5.60;;;;;;;18.60;59.09;95600.09;5014900;28;20060;-81
2023/09/19 01:38:50;;;;;;;10.75;4.70;;;;;;;18.70;59.32;95610.53;5014632;28;20034;-81
2023/09/19 01:41:30;;;;;;;8.52;5.07;;;;;;;18.33;60.01;95580.41;5021242;28;20064;-81
2023/09/19 01:43:56;;;;;;;10.30;5.63;;;;;;;18.26;59.83;95563.97;5026127;28;20132;-81
2023/09/19 01:46:27;;;;;;;11.48;6.50;;;;;;;18.59;59.72;95604.69;5031981;28;20041;-81
2023/09/19 01:49:38;;;;;;;9.55;6.25;;;;;;;18.56;59.86;95610.66;5032480;28;20021;-81
2023/09/19 01:52:13;;;;;;;14.55;6.05;;;;;;;18.67;59.91;95611.97;4992483;28;20037;-81
2023/09/19 01:54:50;;;;;;;13.07;7.22;;;;;;;18.63;59.65;95620.94;5014538;28;20087;-81
2023/09/19 01:57:24;;;;;;;10.48;6.32;;;;;;;18.46;59.81;95595.59;5014136;28;20037;-81
2023/09/19 01:59:56;;;;;;;9.57;6.68;;;;;;;17.93;60.06;95520.59;5032388;28;20061;-81
2023/09/19 02:02:23;;;;;;;12.33;5.77;;;;;;;18.48;60.25;95616.78;5014154;28;20184;-81
2023/09/19 02:04:50;;;;;;;14.23;6.25;;;;;;;18.29;60.53;95622.41;5013887;28;20342;-81
2023/09/19 02:07:16;;;;;;;8.88;6.13;;;;;;;18.39;60.44;95624.00;5032297;28;20060;-81
2023/09/19 02:09:42;;;;;;;12.30;7.43;;;;;;;18.25;60.78;95607.22;5032362;28;20056;-81
2023/09/19 02:12:09;;;;;;;12.63;6.18;;;;;;;18.18;60.68;95591.59;5031991;28;20182;-81
2023/09/19 02:14:36;;;;;;;14.45;7.05;;;;;;;17.81;61.00;95552.63;5014554;28;20528;-81
2023/09/19 02:17:11;;;;;;;10.55;6.55;;;;;;;18.21;60.95;95599.03;5014153;28;20026;-81
2023/09/19 02:19:38;;;;;;;12.80;6.25;;;;;;;17.90;61.25;95566.06;5014379;28;20041;-78
2023/09/19 02:22:07;;;;;;;14.43;7.10;;;;;;;18.17;60.84;95605.31;5031593;28;20037;-78
2023/09/19 02:24:33;;;;;;;10.35;6.95;;;;;;;18.18;60.96;95604.22;5035568;28;20108;-78
2023/09/19 02:27:03;;;;;;;9.57;6.20;;;;;;;18.27;60.61;95602.34;5036206;28;20407;-78
2023/09/19 02:29:29;;;;;;;10.82;5.80;;;;;;;18.41;60.51;95613.75;5018327;28;20056;-78
2023/09/19 02:31:55;;;;;;;10.00;5.63;;;;;;;18.26;60.32;95577.41;5004137;28;20030;-78
2023/09/19 02:34:22;;;;;;;9.60;5.85;;;;;;;18.32;60.36;95583.41;5033039;28;20034;-78
2023/09/19 02:36:47;;;;;;;11.98;5.93;;;;;;;18.28;60.25;95574.41;5035969;28;20037;-78
2023/09/19 02:39:13;;;;;;;14.15;5.97;;;;;;;18.38;60.49;95598.28;5035366;28;20041;-78
2023/09/19 02:41:38;;;;;;;8.93;5.28;;;;;;;18.24;60.27;95563.47;5018631;28;20037;-78
2023/09/19 02:44:07;;;;;;;9.90;5.55;;;;;;;18.40;60.15;95567.31;5035934;28;20067;-78
2023/09/19 02:46:36;;;;;;;9.27;5.72;;;;;;;18.47;59.95;95585.66;5034668;28;20025;-78
2023/09/19 02:49:05;;;;;;;9.20;5.50;;;;;;;18.44;60.07;95587.09;5018551;28;20056;-78
2023/09/19 02:51:31;;;;;;;12.05;5.55;;;;;;;18.29;60.17;95567.94;5017509;28;20036;-78
2023/09/19 02:53:56;;;;;;;10.90;5.40;;;;;;;18.29;60.39;95571.41;5018743;28;20040;-78
2023/09/19 02:56:22;;;;;;;9.48;5.68;;;;;;;18.27;60.24;95572.81;5036230;28;20041;-78
2023/09/19 02:58:48;;;;;;;12.57;6.13;;;;;;;18.28;60.39;95569.81;5036127;28;20089;-78
2023/09/19 03:01:14;;;;;;;7.78;5.25;;;;;;;18.23;60.45;95563.81;5034679;28;20041;-78
2023/09/19 03:03:40;;;;;;;11.45;5.32;;;;;;;18.35;60.35;95574.72;5017641;28;20071;-78
2023/09/19 03:06:08;;;;;;;14.30;6.28;;;;;;;18.39;60.21;95571.09;5017848;28;20123;-78
2023/09/19 03:08:36;;;;;;;16.15;6.55;;;;;;;18.22;60.02;95543.44;5036198;28;20030;-78
2023/09/19 03:11:03;;;;;;;12.88;6.32;;;;;;;18.25;60.28;95557.00;5020112;28;20176;-78
2023/09/19 03:13:31;;;;;;;8.98;6.07;;;;;;;18.13;60.11;95524.63;5031037;28;20045;-77
2023/09/19 03:15:58;;;;;;;8.45;5.93;;;;;;;18.16;60.24;95544.69;5012982;28;20041;-78
2023/09/19 03:18:29;;;;;;;10.95;6.15;;;;;;;17.26;60.32;95408.19;5034027;28;20032;-78
2023/09/19 03:20:55;;;;;;;11.73;6.32;;;;;;;18.22;60.68;95549.59;5034688;28;20184;-78
2023/09/19 03:23:21;;;;;;;12.30;5.95;;;;;;;18.32;60.38;95560.03;5014285;28;20057;-78
2023/09/19 03:25:47;;;;;;;12.35;5.03;;;;;;;18.21;60.55;95558.75;5007720;28;20277;-78
2023/09/19 03:28:13;;;;;;;9.98;6.00;;;;;;;18.08;60.72;95533.59;5017147;28;20033;-78
2023/09/19 03:30:38;;;;;;;11.63;6.30;;;;;;;18.13;60.49;95546.09;5035681;28;20076;-78
2023/09/19 03:33:04;;;;;;;11.48;5.95;;;;;;;18.15;60.53;95537.75;5017855;28;20040;-78
2023/09/19 03:35:30;;;;;;;13.75;6.68;;;;;;;18.30;60.28;95569.53;5025290;28;20045;-78
2023/09/19 03:37:56;;;;;;;12.23;5.75;;;;;;;18.18;60.61;95555.88;5006724;28;20040;-78
2023/09/19 03:40:23;;;;;;;9.65;5.35;;;;;;;18.06;60.93;95570.72;5015165;28;20037;-78
2023/09/19 03:42:49;;;;;;;11.88;5.60;;;;;;;18.05;60.75;95560.28;5015981;28;20638;-78
2023/09/19 03:45:15;;;;;;;11.77;6.45;;;;;;;17.99;60.81;95543.53;5034388;28;20033;-78
2023/09/19 03:47:41;;;;;;;14.07;5.85;;;;;;;18.07;60.75;95582.25;5015606;28;20033;-79
2023/09/19 03:50:08;;;;;;;14.25;6.50;;;;;;;18.01;61.12;95581.56;5016403;28;20033;-78
2023/09/19 03:52:34;;;;;;;8.32;5.30;;;;;;;17.98;60.64;95558.06;5010741;28;20040;-78
2023/09/19 03:55:00;;;;;;;12.10;6.60;;;;;;;18.12;60.79;95582.88;5033433;28;20492;-78
2023/09/19 03:57:25;;;;;;;9.95;6.28;;;;;;;18.05;60.69;95571.81;5015160;28;20049;-78
2023/09/19 03:59:53;;;;;;;9.90;6.80;;;;;;;18.02;60.55;95574.31;5017095;28;20029;-78
2023/09/19 04:02:22;;;;;;;12.20;7.28;;;;;;;18.01;60.83;95583.47;4998505;28;20029;-78
2023/09/19 04:04:48;;;;;;;12.38;7.63;;;;;;;17.97;61.11;95575.25;5046408;28;20034;-78
2023/09/19 04:07:14;;;;;;;12.73;7.80;;;;;;;17.50;61.20;95514.28;5015149;28;20222;-78
2023/09/19 04:09:39;;;;;;;15.18;7.43;;;;;;;17.53;61.34;95530.53;5007357;28;20033;-78
2023/09/19 04:12:05;;;;;;;11.63;7.72;;;;;;;17.86;61.49;95576.63;5020104;28;20511;-78
2023/09/19 04:14:31;;;;;;;16.58;8.60;;;;;;;17.67;61.65;95558.09;5011785;28;20029;-78
2023/09/19 04:16:56;;;;;;;13.55;7.95;;;;;;;17.70;61.83;95578.91;5012488;28;20029;-77
2023/09/19 04:19:21;;;;;;;15.32;7.07;;;;;;;17.54;62.17;95567.00;5011512;28;20248;-78
2023/09/19 04:21:47;;;;;;;13.75;7.82;;;;;;;17.32;61.66;95518.75;5010886;28;20491;-79
2023/09/19 04:24:13;;;;;;;11.02;7.35;;;;;;;17.62;61.74;95560.13;5004693;28;20488;-78
2023/09/19 04:26:39;;;;;;;15.75;7.25;;;;;;;17.96;61.76;95613.91;5019997;28;20037;-78
2023/09/19 04:29:05;;;;;;;12.82;6.50;;;;;;;17.76;61.85;95557.34;5008747;28;20484;-78
2023/09/19 04:31:31;;;;;;;11.02;6.88;;;;;;;18.00;61.80;95596.09;4991889;28;20041;-78
2023/09/19 04:33:59;;;;;;;14.35;6.55;;;;;;;17.86;61.44;95562.41;4993603;28;20424;-79
2023/09/19 04:36:24;;;;;;;14.88;6.47;;;;;;;18.00;61.70;95590.72;4990809;28;20170;-80
2023/09/19 04:38:53;;;;;;;9.68;6.03;;;;;;;17.83;61.62;95565.72;5006547;28;20029;-81
2023/09/19 04:41:19;;;;;;;17.00;6.93;;;;;;;18.08;61.78;95594.53;5024912;28;20455;-81
2023/09/19 04:43:44;;;;;;;6.93;5.05;;;;;;;18.05;61.44;95589.81;5004438;28;20030;-81
2023/09/19 04:46:10;;;;;;;11.32;5.70;;;;;;;18.15;61.56;95589.53;4993207;28;20061;-79
2023/09/19 04:48:36;;;;;;;13.82;7.03;;;;;;;17.83;61.61;95547.75;4979001;28;20030;-79
2023/09/19 04:51:03;;;;;;;8.95;5.28;;;;;;;17.91;61.57;95576.50;4989665;28;20107;-79
2023/09/19 04:53:28;;;;;;;9.85;6.03;;;;;;;17.98;61.96;95584.09;4997530;28;20863;-79
2023/09/19 04:55:55;;;;;;;18.95;7.22;;;;;;;17.21;62.19;95475.34;5023683;28;20041;-78
2023/09/19 04:58:22;;;;;;;11.98;6.55;;;;;;;17.47;62.82;95526.38;5021623;28;20033;-79
2023/09/19 05:00:48;;;;;;;16.42;6.45;;;;;;;17.90;62.24;95563.38;5008562;28;20137;-79
2023/09/19 05:03:13;;;;;;;11.43;6.07;;;;;;;17.86;62.24;95565.09;5010694;28;20061;-80
2023/09/19 05:05:41;;;;;;;24.02;6.82;;;;;;;17.91;62.21;95557.72;5006367;28;20033;-79
2023/09/19 05:08:08;;;;;;;18.38;7.40;;;;;;;17.86;62.05;95546.31;5012669;28;20034;-78
2023/09/19 05:10:34;;;;;;;11.32;6.57;;;;;;;17.84;62.04;95537.81;5026570;28;20037;-79
2023/09/19 05:13:00;;;;;;;12.23;5.97;;;;;;;17.83;61.45;95526.28;5002444;28;20065;-79
2023/09/19 05:15:26;;;;;;;16.77;6.97;;;;;;;18.22;61.52;95581.03;5018499;28;20100;-79
2023/09/19 05:17:54;;;;;;;21.17;6.68;;;;;;;18.38;60.75;95580.28;4988865;28;20033;-80
2023/09/19 05:20:30;;;;;;;18.17;7.22;;;;;;;17.96;61.37;95538.00;5015729;28;20101;-79
2023/09/19 05:23:12;;;;;;;15.55;6.63;;;;;;;18.30;61.35;95573.00;5002282;28;20048;-79
2023/09/19 05:25:38;;;;;;;11.55;6.10;;;;;;;18.41;60.81;95584.22;4997582;28;20029;-78
2023/09/19 05:28:07;;;;;;;15.68;6.28;;;;;;;18.42;60.77;95559.75;5001699;28;20247;-80
2023/09/19 05:30:33;;;;;;;13.32;6.68;;;;;;;18.34;60.60;95541.72;5001344;28;20057;-79
2023/09/19 05:32:59;;;;;;;19.65;7.32;;;;;;;18.26;60.08;95514.84;4994054;28;20112;-80
2023/09/19 05:35:26;;;;;;;12.10;6.63;;;;;;;18.52;59.63;95513.78;5001722;28;20480;-79
2023/09/19 05:37:52;;;;;;;9.73;5.72;;;;;;;18.33;59.61;95488.31;5002217;28;20135;-80
2023/09/19 05:40:18;;;;;;;12.35;4.93;;;;;;;18.78;58.78;95556.00;5000213;28;20033;-79
2023/09/19 05:42:44;;;;;;;9.77;5.53;;;;;;;18.88;58.57;95539.56;5012471;28;20407;-79
2023/09/19 05:45:12;;;;;;;7.55;5.20;;;;;;;18.88;59.01;95534.22;4998062;28;20029;-80
2023/09/19 05:47:40;;;;;;;8.88;5.13;;;;;;;19.03;58.66;95565.97;5004529;28;20029;-79
2023/09/19 05:50:07;;;;;;;12.00;5.78;;;;;;;18.72;59.03;95519.66;5011664;28;20041;-79
2023/09/19 05:52:33;;;;;;;14.88;5.85;;;;;;;18.64;58.75;95490.91;5008702;28;20724;-79
2023/09/19 05:54:58;;;;;;;10.80;5.25;;;;;;;19.12;58.53;95556.00;4999048;28;20029;-81
2023/09/19 05:57:25;;;;;;;29.13;5.38;;;;;;;19.16;58.39;95556.94;4999816;28;20068;-82
2023/09/19 05:59:50;;;;;;;43.42;7.28;;;;;;;19.22;58.15;95561.03;5012176;28;20447;-81
2023/09/19 06:02:16;;;;;;;19.60;5.95;;;;;;;18.75;58.96;95527.91;4995133;28;20025;-81
2023/09/19 06:04:41;;;;;;;16.38;5.53;;;;;;;18.98;58.94;95555.38;5019634;28;20040;-80
2023/09/19 06:07:09;;;;;;;17.73;4.80;;;;;;;18.26;58.35;95429.75;5008792;28;20056;-84
2023/09/19 06:09:35;;;;;;;12.25;5.00;;;;;;;18.97;58.89;95521.56;5022927;28;20393;-84
2023/09/19 06:12:03;;;;;;;11.50;5.35;;;;;;;19.37;58.04;95540.94;5012092;28;20498;-82
2023/09/19 06:14:30;;;;;;;13.13;5.50;;;;;;;19.48;57.95;95542.19;5017453;28;20260;-84
2023/09/19 06:16:56;;;;;;;11.68;5.38;;;;;;;19.42;57.70;95516.56;4987582;28;20041;-86
2023/09/19 06:19:22;;;;;;;8.65;4.80;;;;;;;19.46;57.61;95524.75;4998565;28;20025;-86
2023/09/19 06:21:49;;;;;;;15.10;6.30;;;;;;;17.90;57.12;95276.31;5028805;22;20066;-84
2023/09/19 06:24:14;;;;;;;14.00;5.70;;;;;;;19.27;57.10;95461.41;5038621;28;20065;-86
2023/09/19 06:26:40;;;;;;;7.47;4.78;;;;;;;18.71;57.12;95373.00;5023065;28;20150;-85
2023/09/19 06:29:07;;;;;;;24.83;5.85;;;;;;;19.83;56.56;95547.47;5024015;28;20033;-86
2023/09/19 06:31:33;;;;;;;11.82;5.70;;;;;;;19.33;56.31;95453.94;5010732;28;20551;-86
2023/09/19 06:33:59;;;;;;;13.25;5.43;;;;;;;19.79;56.45;95515.03;5033885;28;20025;-87
2023/09/19 06:36:25;;;;;;;10.57;5.30;;;;;;;18.66;56.65;95327.53;5025771;28;20033;-85
2023/09/19 06:38:53;;;;;;;10.95;5.68;;;;;;;19.74;56.46;95479.44;4993860;28;20029;-84
2023/09/19 06:41:24;;;;;;;10.07;5.32;;;;;;;19.94;56.33;95522.56;5040966;28;20148;-86
2023/09/19 06:43:53;;;;;;;17.08;7.00;;;;;;;19.37;56.53;95454.09;5028957;28;20159;-84
2023/09/19 06:46:19;;;;;;;15.73;5.88;;;;;;;19.96;56.26;95535.72;5020731;28;20036;-85
2023/09/19 06:48:44;;;;;;;14.80;5.38;;;;;;;19.89;56.31;95519.28;5053755;28;20088;-85
2023/09/19 06:51:10;;;;;;;10.48;5.63;;;;;;;19.51;56.00;95449.31;5031366;28;20040;-85
2023/09/19 06:53:36;;;;;;;19.02;5.95;;;;;;;20.00;56.20;95515.09;5016124;28;20478;-86
2023/09/19 06:56:03;;;;;;;14.88;4.53;;;;;;;19.91;55.79;95466.69;5025499;28;20481;-85
2023/09/19 06:58:28;;;;;;;8.05;4.53;;;;;;;20.37;55.35;95526.94;5029832;28;20040;-85
2023/09/19 07:00:54;;;;;;;9.57;4.72;;;;;;;20.20;54.44;95503.59;5038486;28;20028;-86
2023/09/19 07:03:21;;;;;;;18.08;5.63;;;;;;;20.57;54.51;95555.81;5015423;28;20115;-86
2023/09/19 07:05:48;;;;;;;13.75;5.38;;;;;;;20.37;54.22;95516.94;5012232;28;20035;-85
2023/09/19 07:08:15;;;;;;;8.57;4.97;;;;;;;20.69;53.89;95544.31;5013748;28;20039;-86
2023/09/19 07:10:41;;;;;;;9.63;4.45;;;;;;;19.67;53.79;95380.41;5011496;28;20101;-87
2023/09/19 07:13:11;;;;;;;16.92;6.00;;;;;;;20.58;53.54;95498.13;4987164;28;20083;-85
2023/09/19 07:15:46;;;;;;;10.25;5.93;;;;;;;20.36;53.99;95484.97;5004041;28;20699;-88
2023/09/19 07:18:14;;;;;;;12.07;4.90;;;;;;;20.22;54.06;95444.00;5026171;28;20160;-87
2023/09/19 07:20:45;;;;;;;14.05;4.70;;;;;;;20.38;54.16;95478.13;5007839;28;20988;-86
2023/09/19 07:23:13;;;;;;;9.10;4.63;;;;;;;21.07;53.72;95549.56;5004295;28;20032;-86
2023/09/19 07:25:39;;;;;;;8.40;4.85;;;;;;;21.05;53.47;95538.34;5027025;28;20032;-87
2023/09/19 07:28:05;;;;;;;11.88;4.30;;;;;;;21.22;52.97;95551.69;5009656;28;20130;-89
2023/09/19 07:30:31;;;;;;;9.68;4.80;;;;;;;21.01;53.34;95554.38;5013709;28;20036;-87
2023/09/19 07:32:56;;;;;;;9.15;4.88;;;;;;;20.52;53.35;95469.78;5008992;28;20043;-86
2023/09/19 07:35:27;;;;;;;8.23;4.45;;;;;;;20.55;53.31;95473.72;5018795;28;20393;-91
2023/09/19 07:37:53;;;;;;;7.55;4.68;;;;;;;20.86;53.50;95546.09;5035880;28;20601;-87
2023/09/19 07:40:20;;;;;;;9.98;4.70;;;;;;;20.67;52.65;95487.28;4990086;28;20032;-87
2023/09/19 07:42:46;;;;;;;11.98;5.40;;;;;;;21.10;52.27;95524.63;5010177;28;20056;-87
2023/09/19 07:45:14;;;;;;;12.73;4.68;;;;;;;21.35;51.62;95547.91;5030316;28;20123;-85
2023/09/19 07:47:50;;;;;;;22.90;5.13;;;;;;;21.16;51.12;95501.72;5037722;28;20039;-83
2023/09/19 07:50:20;;;;;;;8.82;4.03;;;;;;;21.30;51.26;95534.63;5029896;28;20037;-82
2023/09/19 07:53:06;;;;;;;6.25;4.18;;;;;;;21.27;51.13;95511.03;5022480;28;20096;-85
2023/09/19 07:55:33;;;;;;;6.80;4.00;;;;;;;21.53;50.67;95549.31;5042543;28;20040;-89
2023/09/19 07:57:59;;;;;;;7.50;3.78;;;;;;;21.20;50.04;95485.72;5035533;28;20654;-87
2023/09/19 08:00:25;;;;;;;8.60;4.18;;;;;;;21.40;50.12;95518.03;4994126;28;20033;-85
2023/09/19 08:02:52;;;;;;;21.90;4.88;;;;;;;21.46;50.03;95562.56;4992390;28;20056;-83
2023/09/19 08:05:18;;;;;;;15.00;4.68;;;;;;;21.36;49.92;95519.78;4985587;28;20068;-83
2023/09/19 08:07:48;;;;;;;13.80;4.63;;;;;;;21.28;49.64;95479.44;5006373;28;20033;-84
2023/09/19 08:10:15;;;;;;;10.03;4.73;;;;;;;21.18;50.20;95454.47;5000658;28;20036;-84
2023/09/19 08:12:47;;;;;;;13.52;4.57;;;;;;;21.60;50.05;95526.38;4998049;28;20883;-84
2023/09/19 08:15:16;;;;;;;6.18;4.20;;;;;;;21.56;50.29;95505.47;5005950;28;20029;-83
2023/09/19 08:17:43;;;;;;;7.93;4.45;;;;;;;21.81;50.08;95535.19;4985588;28;20128;-83
2023/09/19 08:20:19;;;;;;;17.00;7.18;;;;;;;21.68;51.18;95526.28;4978728;28;20032;-83
2023/09/19 08:22:52;;;;;;;9.85;5.43;;;;;;;21.64;51.02;95489.50;4980554;28;20032;-83
2023/09/19 08:25:18;;;;;;;11.52;4.30;;;;;;;21.83;50.50;95527.53;5005922;28;20122;-83
2023/09/19 08:27:49;;;;;;;11.68;4.88;;;;;;;22.00;50.82;95524.66;5016813;28;20550;-83
2023/09/19 08:30:23;;;;;;;12.65;5.35;;;;;;;21.68;50.53;95468.81;5009345;28;20037;-84
2023/09/19 08:32:49;;;;;;;13.23;5.05;;;;;;;21.98;50.19;95512.59;4988649;28;20554;-83
2023/09/19 08:35:16;;;;;;;12.68;6.00;;;;;;;21.73;51.00;95488.28;4999939;28;20135;-86
2023/09/19 08:37:45;;;;;;;7.80;5.45;;;;;;;21.71;50.91;95468.94;5022894;28;20052;-84
2023/09/19 08:40:12;;;;;;;11.60;5.65;;;;;;;21.79;49.68;95478.84;5017145;28;20063;-84
2023/09/19 08:42:53;;;;;;;12.68;5.43;;;;;;;22.31;49.40;95532.97;5010181;28;20067;-85
2023/09/19 08:45:20;;;;;;;16.95;5.95;;;;;;;22.19;49.50;95537.59;5023497;28;20067;-85
2023/09/19 08:48:06;;;;;;;16.33;5.90;;;;;;;21.66;49.32;95412.47;5026473;28;20055;-83
2023/09/19 08:50:37;;;;;;;19.02;5.75;;;;;;;22.46;49.31;95530.69;5021076;28;20044;-83
2023/09/19 08:53:10;;;;;;;21.35;6.35;;;;;;;22.39;49.12;95495.34;5005783;28;20633;-84
2023/09/19 08:55:37;;;;;;;11.02;5.25;;;;;;;21.59;48.34;95381.78;5013334;28;20041;-83
2023/09/19 08:58:10;;;;;;;11.07;5.13;;;;;;;22.39;48.40;95477.22;5011950;28;20669;-85
2023/09/19 09:00:36;;;;;;;15.25;5.10;;;;;;;22.09;48.55;95403.00;5015432;28;20412;-84
2023/09/19 09:03:06;;;;;;;8.88;4.50;;;;;;;22.60;48.45;95455.44;5038216;28;20093;-84
2023/09/19 09:05:34;;;;;;;13.82;5.25;;;;;;;22.82;48.52;95500.91;5017787;28;20055;-84
2023/09/19 09:08:02;;;;;;;20.20;4.78;;;;;;;22.33;47.74;95411.06;5022177;28;20034;-84
2023/09/19 09:10:29;;;;;;;17.13;5.88;;;;;;;22.93;48.02;95483.06;5046643;28;20098;-85
2023/09/19 09:12:55;;;;;;;18.02;5.57;;;;;;;23.18;48.05;95505.41;5026986;28;20178;-85
2023/09/19 09:15:23;;;;;;;10.48;5.03;;;;;;;23.00;47.83;95477.84;5048267;28;20049;-85
2023/09/19 09:17:55;;;;;;;11.48;5.03;;;;;;;23.14;47.36;95477.44;5020114;28;20107;-84
2023/09/19 09:20:21;;;;;;;10.50;5.88;;;;;;;23.53;47.71;95499.38;5038630;28;20065;-85
2023/09/19 09:23:00;;;;;;;28.55;6.40;;;;;;;23.54;46.45;95492.81;5048890;28;20048;-84
2023/09/19 09:25:54;;;;;;;18.85;5.40;;;;;;;23.68;46.47;95491.25;5035515;28;20106;-83
2023/09/19 09:28:28;;;;;;;17.67;5.10;;;;;;;23.76;45.99;95476.75;5032961;28;20041;-84
2023/09/19 09:30:55;;;;;;;12.60;5.13;;;;;;;23.58;45.75;95478.22;5052640;28;20029;-83
2023/09/19 09:33:22;;;;;;;12.45;5.57;;;;;;;23.80;45.47;95476.84;5038433;28;20075;-86
2023/09/19 09:35:52;;;;;;;28.65;5.35;;;;;;;23.85;45.70;95490.13;5014424;28;20029;-83
2023/09/19 09:38:25;;;;;;;31.35;6.10;;;;;;;23.45;45.36;95390.88;5005971;28;20038;-83
2023/09/19 09:41:07;;;;;;;16.15;5.18;;;;;;;23.96;45.08;95477.59;5019319;28;20032;-83
2023/09/19 09:43:39;;;;;;;14.25;5.68;;;;;;;23.79;45.37;95413.78;5020606;28;20033;-82
2023/09/19 09:49:19;;;;;;;14.68;5.35;;;;;;;24.35;45.11;95462.28;5046793;28;20669;-84
2023/09/19 09:52:19;;;;;;;14.20;4.90;;;;;;;24.42;44.49;95443.44;5013127;28;20134;-84
2023/09/19 09:55:08;;;;;;;12.80;4.57;;;;;;;24.77;43.92;95461.59;5046332;28;20029;-82
2023/09/19 09:57:34;;;;;;;10.95;5.10;;;;;;;24.51;43.68;95410.72;5036224;28;20029;-83
2023/09/19 10:02:42;;;;;;;14.50;4.88;;;;;;;24.86;43.62;95452.13;5056864;28;20056;-82
2023/09/19 10:07:41;;;;;;;9.00;4.70;;;;;;;25.15;43.11;95455.41;5042881;28;20028;-83
2023/09/19 10:10:27;;;;;;;10.77;4.85;;;;;;;24.63;42.74;95391.59;5028746;28;20029;-83
2023/09/19 10:13:03;;;;;;;14.45;5.07;;;;;;;24.51;42.75;95381.69;5040457;28;20446;-84
2023/09/19 10:15:32;;;;;;;9.98;4.60;;;;;;;24.57;43.31;95393.81;5039713;28;20082;-86
2023/09/19 10:18:01;;;;;;;15.32;5.30;;;;;;;23.79;43.49;95262.13;5029846;28;20134;-84
2023/09/19 10:20:43;;;;;;;12.35;5.35;;;;;;;24.34;43.08;95354.22;5006701;28;20076;-87
2023/09/19 10:23:13;;;;;;;11.02;5.20;;;;;;;24.39;43.10;95348.53;5027093;28;20029;-86
2023/09/19 10:25:41;;;;;;;12.07;5.30;;;;;;;25.01;43.12;95442.34;4997614;28;20433;-83
2023/09/19 10:28:13;;;;;;;9.48;4.80;;;;;;;25.02;43.65;95427.66;5005147;28;21033;-86
2023/09/19 10:30:45;;;;;;;13.07;4.57;;;;;;;24.97;42.65;95417.06;4971760;28;21399;-88
2023/09/19 10:33:13;;;;;;;9.15;4.72;;;;;;;25.07;42.38;95419.22;4984297;28;20199;-85
2023/09/19 10:35:42;;;;;;;7.60;4.43;;;;;;;24.90;42.51;95373.50;4988229;28;20025;-87
2023/09/19 10:38:10;;;;;;;9.52;5.22;;;;;;;25.10;42.49;95394.03;5015429;28;20138;-86
2023/09/19 10:40:40;;;;;;;9.38;5.70;;;;;;;25.15;42.46;95431.75;5003189;28;21263;-86
2023/09/19 10:43:06;;;;;;;7.38;4.82;;;;;;;25.14;42.54;95435.63;5035594;28;20592;-87
2023/09/19 10:45:34;;;;;;;11.60;4.75;;;;;;;24.84;42.42;95389.28;5015007;28;20032;-84
2023/09/19 10:48:05;;;;;;;10.82;4.43;;;;;;;24.60;42.84;95354.34;5029927;28;20091;-85
2023/09/19 10:50:55;;;;;;;6.95;4.28;;;;;;;24.99;43.47;95428.34;5031026;28;20131;-85
2023/09/19 10:53:21;;;;;;;11.15;4.78;;;;;;;25.03;42.92;95420.28;5040175;28;20114;-86
2023/09/19 10:55:59;;;;;;;16.70;5.65;;;;;;;24.98;43.27;95419.44;5034645;28;20084;-86
2023/09/19 10:58:29;;;;;;;9.68;4.55;;;;;;;24.99;43.05;95414.78;5048265;28;20572;-85
2023/09/19 11:01:12;;;;;;;7.85;5.10;;;;;;;24.86;43.35;95414.16;5036870;28;20033;-85
2023/09/19 11:03:44;;;;;;;10.77;5.30;;;;;;;24.32;44.18;95313.16;5042944;28;20035;-85
2023/09/19 11:06:16;;;;;;;13.70;5.82;;;;;;;25.11;44.89;95417.34;5025781;28;20041;-85
2023/09/19 11:11:38;;;;;;;10.23;4.20;;;;;;;25.24;43.47;95407.91;5043977;28;20036;-85
2023/09/19 11:14:23;;;;;;;11.32;5.05;;;;;;;25.19;42.65;95407.38;5044064;28;20179;-84
2023/09/19 11:17:11;;;;;;;15.25;4.63;;;;;;;25.18;42.89;95412.03;5022290;28;20687;-85
2023/09/19 11:22:58;;;;;;;12.23;4.95;;;;;;;25.14;43.34;95403.06;5047201;28;20799;-85
2023/09/19 11:25:29;;;;;;;10.40;4.53;;;;;;;25.18;42.79;95386.81;5035961;28;20029;-84
2023/09/19 11:30:33;;;;;;;14.75;4.60;;;;;;;25.32;42.96;95385.16;5058659;28;20121;-84
2023/09/19 11:33:28;;;;;;;9.32;4.65;;;;;;;25.51;42.47;95387.00;5052148;28;20025;-86
2023/09/19 11:36:15;;;;;;;13.05;4.97;;;;;;;25.68;42.20;95381.09;5042881;28;20037;-83
2023/09/19 11:38:50;;;;;;;8.48;6.10;;;;;;;25.62;42.46;95384.50;5034659;28;20033;-84
2023/09/19 11:41:21;;;;;;;9.00;5.10;;;;;;;25.61;43.04;95381.00;5039863;28;20059;-85
2023/09/19 11:44:00;;;;;;;10.52;4.30;;;;;;;25.89;42.37;95375.19;5040720;28;20025;-86
2023/09/19 11:46:31;;;;;;;8.93;5.05;;;;;;;24.96;41.14;95193.03;5045885;28;20117;-87
2023/09/19 11:49:15;;;;;;;9.80;4.78;;;;;;;25.07;41.48;95231.19;5026843;28;20449;-85
2023/09/19 11:51:45;;;;;;;9.35;4.35;;;;;;;26.21;41.63;95344.97;5022123;28;20499;-86
2023/09/19 11:54:18;;;;;;;8.85;5.63;;;;;;;25.24;41.47;95189.97;5018850;28;20029;-85
2023/09/19 11:56:45;;;;;;;10.45;5.25;;;;;;;24.97;41.10;95092.31;5023298;28;20037;-85